sensor_id;sensor_type;location;lat;lon;timestamp;P1;durP1;ratioP1;P2;durP2;ratioP2
56039;SDS011;43937;41.366;2.072;2023-03-21T00:02:07;10.20;;;2.17;;
56039;SDS011;43937;41.366;2.072;2023-03-21T00:04:32;2.50;;;1.70;;
56039;SDS011;43937;41.366;2.072;2023-03-21T00:08:28;2.47;;;1.67;;
56039;SDS011;43937;41.366;2.072;2023-03-21T00:10:57;5.90;;;1.48;;
56039;SDS011;43937;41.366;2.072;2023-03-21T00:13:24;5.03;;;1.95;;
56039;SDS011;43937;41.366;2.072;2023-03-21T00:15:52;1.17;;;1.08;;
56039;SDS011;43937;41.366;2.072;2023-03-21T00:24:43;2.97;;;0.98;;
56039;SDS011;43937;41.366;2.072;2023-03-21T00:27:09;1.67;;;1.27;;
56039;SDS011;43937;41.366;2.072;2023-03-21T00:29:34;4.85;;;1.48;;
56039;SDS011;43937;41.366;2.072;2023-03-21T00:34:16;2.25;;;1.08;;
56039;SDS011;43937;41.366;2.072;2023-03-21T00:39:38;4.82;;;1.98;;
56039;SDS011;43937;41.366;2.072;2023-03-21T00:47:25;2.85;;;1.88;;
56039;SDS011;43937;41.366;2.072;2023-03-21T00:54:44;4.75;;;2.28;;
56039;SDS011;43937;41.366;2.072;2023-03-21T00:58:53;2.97;;;1.95;;
56039;SDS011;43937;41.366;2.072;2023-03-21T01:05:39;4.22;;;1.35;;
56039;SDS011;43937;41.366;2.072;2023-03-21T01:08:25;2.47;;;1.50;;
56039;SDS011;43937;41.366;2.072;2023-03-21T01:10:55;4.43;;;1.27;;
56039;SDS011;43937;41.366;2.072;2023-03-21T01:13:49;2.20;;;1.45;;
56039;SDS011;43937;41.366;2.072;2023-03-21T01:28:26;2.35;;;1.60;;
56039;SDS011;43937;41.366;2.072;2023-03-21T01:30:53;2.00;;;1.42;;
56039;SDS011;43937;41.366;2.072;2023-03-21T01:35:37;3.65;;;1.98;;
56039;SDS011;43937;41.366;2.072;2023-03-21T01:40:10;4.32;;;1.50;;
56039;SDS011;43937;41.366;2.072;2023-03-21T01:57:44;1.83;;;1.48;;
56039;SDS011;43937;41.366;2.072;2023-03-21T02:00:14;3.28;;;1.48;;
56039;SDS011;43937;41.366;2.072;2023-03-21T02:08:05;1.90;;;1.23;;
56039;SDS011;43937;41.366;2.072;2023-03-21T02:11:13;2.03;;;1.65;;
56039;SDS011;43937;41.366;2.072;2023-03-21T02:13:39;0.98;;;0.90;;
56039;SDS011;43937;41.366;2.072;2023-03-21T02:16:52;2.35;;;1.38;;
56039;SDS011;43937;41.366;2.072;2023-03-21T02:20:45;2.50;;;1.73;;
56039;SDS011;43937;41.366;2.072;2023-03-21T02:39:20;2.40;;;1.90;;
56039;SDS011;43937;41.366;2.072;2023-03-21T02:43:34;4.72;;;1.75;;
56039;SDS011;43937;41.366;2.072;2023-03-21T02:51:17;2.50;;;1.83;;
56039;SDS011;43937;41.366;2.072;2023-03-21T02:53:48;4.28;;;1.70;;
56039;SDS011;43937;41.366;2.072;2023-03-21T02:58:24;5.03;;;2.70;;
56039;SDS011;43937;41.366;2.072;2023-03-21T03:00:53;5.20;;;2.90;;
56039;SDS011;43937;41.366;2.072;2023-03-21T03:12:54;2.65;;;1.95;;
56039;SDS011;43937;41.366;2.072;2023-03-21T03:19:10;5.95;;;2.88;;
56039;SDS011;43937;41.366;2.072;2023-03-21T03:24:32;7.57;;;3.53;;
56039;SDS011;43937;41.366;2.072;2023-03-21T03:29:12;5.47;;;3.53;;
56039;SDS011;43937;41.366;2.072;2023-03-21T03:31:52;4.33;;;3.53;;
56039;SDS011;43937;41.366;2.072;2023-03-21T03:36:09;4.22;;;3.55;;
56039;SDS011;43937;41.366;2.072;2023-03-21T03:43:49;5.40;;;3.17;;
56039;SDS011;43937;41.366;2.072;2023-03-21T03:55:29;3.30;;;2.65;;
56039;SDS011;43937;41.366;2.072;2023-03-21T03:58:07;3.22;;;2.92;;
56039;SDS011;43937;41.366;2.072;2023-03-21T04:00:33;10.35;;;4.53;;
56039;SDS011;43937;41.366;2.072;2023-03-21T04:03:41;8.27;;;4.38;;
56039;SDS011;43937;41.366;2.072;2023-03-21T04:09:36;10.80;;;3.80;;
56039;SDS011;43937;41.366;2.072;2023-03-21T04:12:05;4.68;;;4.03;;
56039;SDS011;43937;41.366;2.072;2023-03-21T04:24:38;5.10;;;4.57;;
56039;SDS011;43937;41.366;2.072;2023-03-21T04:27:05;6.57;;;4.45;;
56039;SDS011;43937;41.366;2.072;2023-03-21T04:29:31;7.60;;;4.60;;
56039;SDS011;43937;41.366;2.072;2023-03-21T04:32:22;6.55;;;4.75;;
56039;SDS011;43937;41.366;2.072;2023-03-21T04:34:48;11.45;;;5.88;;
56039;SDS011;43937;41.366;2.072;2023-03-21T04:38:26;8.48;;;5.18;;
56039;SDS011;43937;41.366;2.072;2023-03-21T04:40:55;11.65;;;5.63;;
56039;SDS011;43937;41.366;2.072;2023-03-21T04:43:57;6.40;;;4.60;;
56039;SDS011;43937;41.366;2.072;2023-03-21T04:48:51;5.45;;;4.90;;
56039;SDS011;43937;41.366;2.072;2023-03-21T04:55:28;10.05;;;5.40;;
56039;SDS011;43937;41.366;2.072;2023-03-21T04:57:55;20.75;;;5.78;;
56039;SDS011;43937;41.366;2.072;2023-03-21T05:09:13;13.05;;;6.55;;
56039;SDS011;43937;41.366;2.072;2023-03-21T05:11:39;9.25;;;6.18;;
56039;SDS011;43937;41.366;2.072;2023-03-21T05:14:59;12.02;;;5.32;;
56039;SDS011;43937;41.366;2.072;2023-03-21T05:17:25;10.93;;;5.93;;
56039;SDS011;43937;41.366;2.072;2023-03-21T05:21:25;9.73;;;6.35;;
56039;SDS011;43937;41.366;2.072;2023-03-21T05:26:29;7.30;;;5.72;;
56039;SDS011;43937;41.366;2.072;2023-03-21T05:32:49;9.77;;;6.25;;
56039;SDS011;43937;41.366;2.072;2023-03-21T05:40:25;13.73;;;5.70;;
56039;SDS011;43937;41.366;2.072;2023-03-21T05:44:27;8.40;;;4.90;;
56039;SDS011;43937;41.366;2.072;2023-03-21T05:57:13;13.20;;;5.53;;
56039;SDS011;43937;41.366;2.072;2023-03-21T05:59:54;6.78;;;4.95;;
56039;SDS011;43937;41.366;2.072;2023-03-21T06:05:17;10.63;;;6.38;;
56039;SDS011;43937;41.366;2.072;2023-03-21T06:07:43;5.45;;;4.88;;
56039;SDS011;43937;41.366;2.072;2023-03-21T06:11:25;10.38;;;4.93;;
56039;SDS011;43937;41.366;2.072;2023-03-21T06:14:39;11.35;;;5.05;;
56039;SDS011;43937;41.366;2.072;2023-03-21T06:31:07;8.90;;;6.13;;
56039;SDS011;43937;41.366;2.072;2023-03-21T06:35:18;9.63;;;6.60;;
56039;SDS011;43937;41.366;2.072;2023-03-21T06:39:07;16.98;;;5.75;;
56039;SDS011;43937;41.366;2.072;2023-03-21T06:41:34;7.97;;;5.40;;
56039;SDS011;43937;41.366;2.072;2023-03-21T06:44:00;6.30;;;4.50;;
56039;SDS011;43937;41.366;2.072;2023-03-21T06:56:36;9.75;;;6.63;;
56039;SDS011;43937;41.366;2.072;2023-03-21T07:09:14;12.52;;;6.05;;
56039;SDS011;43937;41.366;2.072;2023-03-21T07:12:08;9.52;;;6.30;;
56039;SDS011;43937;41.366;2.072;2023-03-21T07:21:07;12.60;;;6.50;;
56039;SDS011;43937;41.366;2.072;2023-03-21T07:23:32;9.80;;;6.25;;
56039;SDS011;43937;41.366;2.072;2023-03-21T07:29:06;7.88;;;5.93;;
56039;SDS011;43937;41.366;2.072;2023-03-21T07:38:31;9.35;;;5.10;;
56039;SDS011;43937;41.366;2.072;2023-03-21T07:40:57;8.80;;;6.53;;
56039;SDS011;43937;41.366;2.072;2023-03-21T07:44:02;13.32;;;5.68;;
56039;SDS011;43937;41.366;2.072;2023-03-21T07:46:27;10.75;;;5.88;;
56039;SDS011;43937;41.366;2.072;2023-03-21T07:50:11;13.43;;;5.68;;
56039;SDS011;43937;41.366;2.072;2023-03-21T07:52:37;5.90;;;5.30;;
56039;SDS011;43937;41.366;2.072;2023-03-21T07:55:03;9.48;;;6.63;;
56039;SDS011;43937;41.366;2.072;2023-03-21T07:58:44;7.35;;;4.72;;
56039;SDS011;43937;41.366;2.072;2023-03-21T08:02:46;43.35;;;5.40;;
56039;SDS011;43937;41.366;2.072;2023-03-21T08:10:28;4.85;;;2.70;;
56039;SDS011;43937;41.366;2.072;2023-03-21T08:12:53;3.03;;;2.60;;
56039;SDS011;43937;41.366;2.072;2023-03-21T08:33:43;4.15;;;2.20;;
56039;SDS011;43937;41.366;2.072;2023-03-21T08:36:08;2.20;;;1.67;;
56039;SDS011;43937;41.366;2.072;2023-03-21T08:42:20;5.18;;;1.50;;
56039;SDS011;43937;41.366;2.072;2023-03-21T08:53:16;1.95;;;1.67;;
56039;SDS011;43937;41.366;2.072;2023-03-21T09:00:51;1.90;;;1.70;;
56039;SDS011;43937;41.366;2.072;2023-03-21T09:04:47;3.78;;;2.50;;
56039;SDS011;43937;41.366;2.072;2023-03-21T09:08:25;3.75;;;2.20;;
56039;SDS011;43937;41.366;2.072;2023-03-21T09:12:50;3.42;;;1.98;;
56039;SDS011;43937;41.366;2.072;2023-03-21T09:15:34;3.05;;;2.28;;
56039;SDS011;43937;41.366;2.072;2023-03-21T09:18:00;4.10;;;1.80;;
56039;SDS011;43937;41.366;2.072;2023-03-21T09:21:26;3.22;;;2.58;;
56039;SDS011;43937;41.366;2.072;2023-03-21T09:30:07;4.28;;;1.92;;
56039;SDS011;43937;41.366;2.072;2023-03-21T09:37:42;2.10;;;1.88;;
56039;SDS011;43937;41.366;2.072;2023-03-21T09:40:16;2.85;;;2.00;;
56039;SDS011;43937;41.366;2.072;2023-03-21T09:46:39;2.38;;;1.70;;
56039;SDS011;43937;41.366;2.072;2023-03-21T10:01:28;4.68;;;2.22;;
56039;SDS011;43937;41.366;2.072;2023-03-21T10:03:59;3.75;;;2.33;;
56039;SDS011;43937;41.366;2.072;2023-03-21T10:06:29;6.53;;;2.97;;
56039;SDS011;43937;41.366;2.072;2023-03-21T10:13:34;5.70;;;2.40;;
56039;SDS011;43937;41.366;2.072;2023-03-21T10:31:37;3.20;;;1.80;;
56039;SDS011;43937;41.366;2.072;2023-03-21T10:43:44;9.02;;;3.83;;
56039;SDS011;43937;41.366;2.072;2023-03-21T10:48:49;4.50;;;1.80;;
56039;SDS011;43937;41.366;2.072;2023-03-21T10:55:45;2.25;;;1.25;;
56039;SDS011;43937;41.366;2.072;2023-03-21T10:58:52;8.73;;;2.10;;
56039;SDS011;43937;41.366;2.072;2023-03-21T11:08:14;2.42;;;1.45;;
56039;SDS011;43937;41.366;2.072;2023-03-21T11:12:18;41.85;;;12.57;;
56039;SDS011;43937;41.366;2.072;2023-03-21T11:34:26;2.08;;;1.30;;
56039;SDS011;43937;41.366;2.072;2023-03-21T11:39:48;0.82;;;0.77;;
56039;SDS011;43937;41.366;2.072;2023-03-21T11:42:28;2.03;;;0.90;;
56039;SDS011;43937;41.366;2.072;2023-03-21T11:47:30;4.65;;;2.13;;
56039;SDS011;43937;41.366;2.072;2023-03-21T12:23:12;3.67;;;2.13;;
56039;SDS011;43937;41.366;2.072;2023-03-21T12:25:57;1.77;;;1.33;;
56039;SDS011;43937;41.366;2.072;2023-03-21T12:45:31;2.05;;;1.17;;
56039;SDS011;43937;41.366;2.072;2023-03-21T12:50:02;10.63;;;4.38;;
56039;SDS011;43937;41.366;2.072;2023-03-21T13:02:53;2.88;;;1.50;;
56039;SDS011;43937;41.366;2.072;2023-03-21T13:25:22;1.65;;;1.50;;
56039;SDS011;43937;41.366;2.072;2023-03-21T13:27:53;2.28;;;1.00;;
56039;SDS011;43937;41.366;2.072;2023-03-21T13:35:15;2.03;;;1.20;;
56039;SDS011;43937;41.366;2.072;2023-03-21T13:41:48;2.67;;;1.80;;
56039;SDS011;43937;41.366;2.072;2023-03-21T13:51:02;2.47;;;1.25;;
56039;SDS011;43937;41.366;2.072;2023-03-21T13:55:42;2.65;;;1.55;;
56039;SDS011;43937;41.366;2.072;2023-03-21T13:59:08;3.28;;;0.77;;
56039;SDS011;43937;41.366;2.072;2023-03-21T14:02:36;2.97;;;1.55;;
56039;SDS011;43937;41.366;2.072;2023-03-21T14:12:02;5.45;;;1.83;;
56039;SDS011;43937;41.366;2.072;2023-03-21T14:18:46;2.90;;;1.33;;
56039;SDS011;43937;41.366;2.072;2023-03-21T14:24:37;7.55;;;1.63;;
56039;SDS011;43937;41.366;2.072;2023-03-21T14:27:03;2.00;;;0.90;;
56039;SDS011;43937;41.366;2.072;2023-03-21T14:34:08;0.57;;;0.55;;
56039;SDS011;43937;41.366;2.072;2023-03-21T14:36:37;2.65;;;1.02;;
56039;SDS011;43937;41.366;2.072;2023-03-21T14:39:38;2.85;;;0.52;;
56039;SDS011;43937;41.366;2.072;2023-03-21T14:42:31;3.15;;;1.00;;
56039;SDS011;43937;41.366;2.072;2023-03-21T14:46:10;2.00;;;0.70;;
56039;SDS011;43937;41.366;2.072;2023-03-21T14:48:52;0.95;;;0.50;;
56039;SDS011;43937;41.366;2.072;2023-03-21T15:03:00;2.13;;;0.80;;
56039;SDS011;43937;41.366;2.072;2023-03-21T15:12:49;0.93;;;0.50;;
56039;SDS011;43937;41.366;2.072;2023-03-21T15:22:31;1.23;;;0.60;;
56039;SDS011;43937;41.366;2.072;2023-03-21T15:31:52;0.60;;;0.47;;
56039;SDS011;43937;41.366;2.072;2023-03-21T15:35:42;1.98;;;0.93;;
56039;SDS011;43937;41.366;2.072;2023-03-21T15:45:00;1.15;;;0.38;;
56039;SDS011;43937;41.366;2.072;2023-03-21T15:55:15;1.05;;;0.68;;
56039;SDS011;43937;41.366;2.072;2023-03-21T16:05:31;5.28;;;0.52;;
56039;SDS011;43937;41.366;2.072;2023-03-21T16:08:25;4.85;;;0.88;;
56039;SDS011;43937;41.366;2.072;2023-03-21T16:10:52;2.65;;;1.17;;
56039;SDS011;43937;41.366;2.072;2023-03-21T16:13:17;0.95;;;0.60;;
56039;SDS011;43937;41.366;2.072;2023-03-21T16:17:01;1.15;;;0.50;;
56039;SDS011;43937;41.366;2.072;2023-03-21T16:20:18;2.05;;;1.10;;
56039;SDS011;43937;41.366;2.072;2023-03-21T16:22:59;1.45;;;0.80;;
56039;SDS011;43937;41.366;2.072;2023-03-21T16:26:04;1.58;;;0.65;;
56039;SDS011;43937;41.366;2.072;2023-03-21T16:28:30;1.48;;;0.77;;
56039;SDS011;43937;41.366;2.072;2023-03-21T16:32:56;1.13;;;0.85;;
56039;SDS011;43937;41.366;2.072;2023-03-21T16:44:26;5.85;;;1.20;;
56039;SDS011;43937;41.366;2.072;2023-03-21T16:53:04;1.80;;;0.60;;
56039;SDS011;43937;41.366;2.072;2023-03-21T17:00:24;1.50;;;0.65;;
56039;SDS011;43937;41.366;2.072;2023-03-21T17:09:25;1.75;;;0.55;;
56039;SDS011;43937;41.366;2.072;2023-03-21T17:11:51;0.95;;;0.68;;
56039;SDS011;43937;41.366;2.072;2023-03-21T17:14:34;3.10;;;0.90;;
56039;SDS011;43937;41.366;2.072;2023-03-21T17:25:32;3.53;;;1.48;;
56039;SDS011;43937;41.366;2.072;2023-03-21T17:27:58;5.55;;;1.00;;
56039;SDS011;43937;41.366;2.072;2023-03-21T17:37:21;1.02;;;0.70;;
56039;SDS011;43937;41.366;2.072;2023-03-21T17:39:50;5.10;;;1.58;;
56039;SDS011;43937;41.366;2.072;2023-03-21T17:43:45;2.13;;;0.80;;
56039;SDS011;43937;41.366;2.072;2023-03-21T17:46:12;4.10;;;1.20;;
56039;SDS011;43937;41.366;2.072;2023-03-21T17:48:40;2.08;;;0.80;;
56039;SDS011;43937;41.366;2.072;2023-03-21T17:51:07;1.67;;;1.13;;
56039;SDS011;43937;41.366;2.072;2023-03-21T17:54:26;4.28;;;1.25;;
56039;SDS011;43937;41.366;2.072;2023-03-21T17:57:55;1.60;;;0.80;;
56039;SDS011;43937;41.366;2.072;2023-03-21T18:00:24;2.15;;;1.00;;
56039;SDS011;43937;41.366;2.072;2023-03-21T18:02:52;0.93;;;0.73;;
56039;SDS011;43937;41.366;2.072;2023-03-21T18:08:32;1.60;;;0.90;;
56039;SDS011;43937;41.366;2.072;2023-03-21T18:11:15;1.77;;;0.90;;
56039;SDS011;43937;41.366;2.072;2023-03-21T18:16:00;1.27;;;1.17;;
56039;SDS011;43937;41.366;2.072;2023-03-21T18:18:26;10.18;;;1.88;;
56039;SDS011;43937;41.366;2.072;2023-03-21T18:22:16;3.38;;;1.08;;
56039;SDS011;43937;41.366;2.072;2023-03-21T18:25:59;1.92;;;0.85;;
56039;SDS011;43937;41.366;2.072;2023-03-21T18:43:13;3.60;;;1.15;;
56039;SDS011;43937;41.366;2.072;2023-03-21T18:46:09;2.35;;;1.20;;
56039;SDS011;43937;41.366;2.072;2023-03-21T18:50:12;1.98;;;1.38;;
56039;SDS011;43937;41.366;2.072;2023-03-21T18:52:38;1.88;;;1.15;;
56039;SDS011;43937;41.366;2.072;2023-03-21T18:55:04;6.68;;;1.40;;
56039;SDS011;43937;41.366;2.072;2023-03-21T18:58:16;1.80;;;1.10;;
56039;SDS011;43937;41.366;2.072;2023-03-21T19:03:34;6.68;;;1.20;;
56039;SDS011;43937;41.366;2.072;2023-03-21T19:07:46;3.28;;;1.35;;
56039;SDS011;43937;41.366;2.072;2023-03-21T19:11:00;7.10;;;1.30;;
56039;SDS011;43937;41.366;2.072;2023-03-21T19:14:42;3.22;;;1.40;;
56039;SDS011;43937;41.366;2.072;2023-03-21T19:18:28;6.28;;;2.10;;
56039;SDS011;43937;41.366;2.072;2023-03-21T19:23:50;2.75;;;1.38;;
56039;SDS011;43937;41.366;2.072;2023-03-21T19:32:35;3.80;;;1.88;;
56039;SDS011;43937;41.366;2.072;2023-03-21T19:37:10;8.05;;;1.88;;
56039;SDS011;43937;41.366;2.072;2023-03-21T19:43:19;2.90;;;1.48;;
56039;SDS011;43937;41.366;2.072;2023-03-21T19:47:07;3.35;;;1.70;;
56039;SDS011;43937;41.366;2.072;2023-03-21T19:53:38;3.08;;;1.52;;
56039;SDS011;43937;41.366;2.072;2023-03-21T19:59:54;3.75;;;1.80;;
56039;SDS011;43937;41.366;2.072;2023-03-21T20:02:19;2.55;;;1.40;;
56039;SDS011;43937;41.366;2.072;2023-03-21T20:04:45;1.90;;;1.35;;
56039;SDS011;43937;41.366;2.072;2023-03-21T20:08:42;1.92;;;1.27;;
56039;SDS011;43937;41.366;2.072;2023-03-21T20:11:07;7.30;;;2.20;;
56039;SDS011;43937;41.366;2.072;2023-03-21T20:19:47;3.95;;;2.65;;
56039;SDS011;43937;41.366;2.072;2023-03-21T20:22:36;2.28;;;1.10;;
56039;SDS011;43937;41.366;2.072;2023-03-21T20:25:59;1.95;;;1.30;;
56039;SDS011;43937;41.366;2.072;2023-03-21T20:29:57;3.80;;;1.17;;
56039;SDS011;43937;41.366;2.072;2023-03-21T20:35:20;6.47;;;1.70;;
56039;SDS011;43937;41.366;2.072;2023-03-21T20:42:09;2.00;;;1.40;;
56039;SDS011;43937;41.366;2.072;2023-03-21T20:44:35;3.80;;;1.67;;
56039;SDS011;43937;41.366;2.072;2023-03-21T20:47:10;3.85;;;1.83;;
56039;SDS011;43937;41.366;2.072;2023-03-21T20:51:23;3.92;;;1.52;;
56039;SDS011;43937;41.366;2.072;2023-03-21T21:00:28;2.35;;;1.58;;
56039;SDS011;43937;41.366;2.072;2023-03-21T21:02:53;2.38;;;1.90;;
56039;SDS011;43937;41.366;2.072;2023-03-21T21:05:19;3.65;;;1.95;;
56039;SDS011;43937;41.366;2.072;2023-03-21T21:08:47;4.55;;;2.20;;
56039;SDS011;43937;41.366;2.072;2023-03-21T21:12:02;13.05;;;9.23;;
56039;SDS011;43937;41.366;2.072;2023-03-21T21:14:28;3.25;;;2.38;;
56039;SDS011;43937;41.366;2.072;2023-03-21T21:22:37;3.60;;;2.60;;
56039;SDS011;43937;41.366;2.072;2023-03-21T21:27:55;4.25;;;2.65;;
56039;SDS011;43937;41.366;2.072;2023-03-21T21:30:21;3.78;;;2.63;;
56039;SDS011;43937;41.366;2.072;2023-03-21T21:32:46;4.10;;;2.67;;
56039;SDS011;43937;41.366;2.072;2023-03-21T21:35:33;5.10;;;2.78;;
56039;SDS011;43937;41.366;2.072;2023-03-21T21:37:59;5.32;;;2.40;;
56039;SDS011;43937;41.366;2.072;2023-03-21T21:40:25;17.27;;;2.85;;
56039;SDS011;43937;41.366;2.072;2023-03-21T21:44:34;3.67;;;2.33;;
56039;SDS011;43937;41.366;2.072;2023-03-21T21:48:56;6.57;;;2.35;;
56039;SDS011;43937;41.366;2.072;2023-03-21T21:54:46;6.70;;;3.00;;
56039;SDS011;43937;41.366;2.072;2023-03-21T22:00:14;11.43;;;1.88;;
56039;SDS011;43937;41.366;2.072;2023-03-21T22:05:50;2.72;;;2.05;;
56039;SDS011;43937;41.366;2.072;2023-03-21T22:08:31;8.68;;;2.55;;
56039;SDS011;43937;41.366;2.072;2023-03-21T22:10:58;5.60;;;2.70;;
56039;SDS011;43937;41.366;2.072;2023-03-21T22:13:25;3.88;;;2.85;;
56039;SDS011;43937;41.366;2.072;2023-03-21T22:15:50;22.02;;;3.75;;
56039;SDS011;43937;41.366;2.072;2023-03-21T22:20:15;5.68;;;3.22;;
56039;SDS011;43937;41.366;2.072;2023-03-21T22:24:16;8.82;;;3.33;;
56039;SDS011;43937;41.366;2.072;2023-03-21T22:26:42;6.72;;;3.42;;
56039;SDS011;43937;41.366;2.072;2023-03-21T22:29:07;14.05;;;4.30;;
56039;SDS011;43937;41.366;2.072;2023-03-21T22:32:13;7.10;;;4.93;;
56039;SDS011;43937;41.366;2.072;2023-03-21T22:39:00;7.88;;;5.07;;
56039;SDS011;43937;41.366;2.072;2023-03-21T22:48:41;3.92;;;2.67;;
56039;SDS011;43937;41.366;2.072;2023-03-21T22:51:06;8.10;;;3.90;;
56039;SDS011;43937;41.366;2.072;2023-03-21T22:55:42;6.88;;;2.92;;
56039;SDS011;43937;41.366;2.072;2023-03-21T22:58:07;5.18;;;2.92;;
56039;SDS011;43937;41.366;2.072;2023-03-21T23:00:33;3.22;;;2.60;;
56039;SDS011;43937;41.366;2.072;2023-03-21T23:02:58;4.47;;;3.08;;
56039;SDS011;43937;41.366;2.072;2023-03-21T23:05:24;3.53;;;2.42;;
56039;SDS011;43937;41.366;2.072;2023-03-21T23:10:50;6.95;;;3.67;;
56039;SDS011;43937;41.366;2.072;2023-03-21T23:13:15;4.40;;;3.05;;
56039;SDS011;43937;41.366;2.072;2023-03-21T23:15:41;9.70;;;7.07;;
56039;SDS011;43937;41.366;2.072;2023-03-21T23:19:58;7.93;;;5.95;;
56039;SDS011;43937;41.366;2.072;2023-03-21T23:24:46;10.80;;;7.40;;
56039;SDS011;43937;41.366;2.072;2023-03-21T23:38:43;17.30;;;12.82;;
56039;SDS011;43937;41.366;2.072;2023-03-21T23:44:27;17.13;;;12.60;;
56039;SDS011;43937;41.366;2.072;2023-03-21T23:48:10;16.17;;;10.82;;
56039;SDS011;43937;41.366;2.072;2023-03-21T23:53:23;14.88;;;7.07;;
56039;SDS011;43937;41.366;2.072;2023-03-21T23:55:48;8.30;;;6.05;;
56039;SDS011;43937;41.366;2.072;2023-03-21T23:58:16;7.95;;;4.90;;
